CPA2520 YSSY-VHHX
Flight info
| Callsign | CPA2520 |
|---|---|
| Flight time | 3h 12m |
| Altitude | 34000 |
| Route | RIC H530 SURVO/N0496F360 R340 AMN A461 TANAL/N0490F380 A461 ZAM A583 SABNO |
| Aircraft | B77W/H-SDE1E2E3FGHIJ2J3J4J5M1RWXY/LB1D1 |
Departure
| Time | 2026-05-04 06:40 |
|---|---|
| Airport | Sydney Kingsford Smith International Airport (YSSY) |
Arrival
| Time | 2026-05-04 09:53 |
|---|---|
| Airport | Hong Kong International Airport Kai Tak (VHHX) |
| Time | Latitude | Longitude | Altitude | Speed | Heading |
|---|---|---|---|---|---|
| 2026-05-04 05:52 | -33.94029 | 151.16538 | 29 ft | 0 kts | 345° |
| 2026-05-04 06:25 | -33.94142 | 151.16499 | 31 ft | 0 kts | 74° |
| 2026-05-04 06:28 | -33.94141 | 151.16503 | 31 ft | 3 kts | 74° |
| 2026-05-04 06:29 | -33.94125 | 151.16570 | 30 ft | 12 kts | 74° |
| 2026-05-04 06:29 | -33.94101 | 151.16672 | 30 ft | 5 kts | 74° |
| 2026-05-04 06:29 | -33.94090 | 151.16722 | 29 ft | 7 kts | 74° |
| 2026-05-04 06:29 | -33.94077 | 151.16776 | 27 ft | 7 kts | 74° |
| 2026-05-04 06:30 | -33.94064 | 151.16829 | 26 ft | 7 kts | 74° |
| 2026-05-04 06:30 | -33.94051 | 151.16884 | 27 ft | 7 kts | 74° |
| 2026-05-04 06:30 | -33.94036 | 151.16948 | 29 ft | 9 kts | 74° |
| 2026-05-04 06:30 | -33.94019 | 151.17019 | 28 ft | 9 kts | 73° |
| 2026-05-04 06:31 | -33.94002 | 151.17091 | 28 ft | 9 kts | 73° |
| 2026-05-04 06:31 | -33.93982 | 151.17171 | 27 ft | 10 kts | 79° |
| 2026-05-04 06:31 | -33.94020 | 151.17234 | 28 ft | 10 kts | 162° |
| 2026-05-04 06:31 | -33.94090 | 151.17254 | 27 ft | 10 kts | 168° |
| 2026-05-04 06:32 | -33.94167 | 151.17274 | 27 ft | 13 kts | 168° |
| 2026-05-04 06:33 | -33.94790 | 151.17437 | 28 ft | 15 kts | 168° |
| 2026-05-04 06:34 | -33.94897 | 151.17465 | 27 ft | 16 kts | 168° |
| 2026-05-04 06:34 | -33.95009 | 151.17494 | 28 ft | 16 kts | 168° |
| 2026-05-04 06:34 | -33.95121 | 151.17522 | 27 ft | 16 kts | 168° |
| 2026-05-04 06:34 | -33.95233 | 151.17551 | 27 ft | 17 kts | 168° |
| 2026-05-04 06:35 | -33.95345 | 151.17579 | 24 ft | 17 kts | 168° |
| 2026-05-04 06:36 | -33.96110 | 151.17779 | 29 ft | 15 kts | 168° |
| 2026-05-04 06:37 | -33.96210 | 151.17805 | 28 ft | 15 kts | 168° |
| 2026-05-04 06:37 | -33.96310 | 151.17830 | 27 ft | 15 kts | 168° |
| 2026-05-04 06:37 | -33.96364 | 151.17844 | 28 ft | 5 kts | 168° |
| 2026-05-04 06:37 | -33.96400 | 151.17857 | 28 ft | 5 kts | 156° |
| 2026-05-04 06:38 | -33.96428 | 151.17886 | 29 ft | 5 kts | 125° |
| 2026-05-04 06:38 | -33.96434 | 151.17901 | 28 ft | 2 kts | 111° |
| 2026-05-04 06:40 | -33.94659 | 151.17606 | 29 ft | 162 kts | 348° |
| 2026-05-04 06:40 | -33.93464 | 151.17314 | 339 ft | 177 kts | 351° |
| 2026-05-04 06:40 | -33.92215 | 151.16996 | 803 ft | 188 kts | 350° |
| 2026-05-04 06:40 | -33.90933 | 151.16659 | 1427 ft | 186 kts | 349° |
| 2026-05-04 06:41 | -33.89719 | 151.16138 | 1871 ft | 194 kts | 324° |
| 2026-05-04 06:41 | -33.88751 | 151.14891 | 2055 ft | 215 kts | 314° |
| 2026-05-04 06:41 | -33.87697 | 151.13475 | 2358 ft | 233 kts | 315° |
| 2026-05-04 06:41 | -33.86581 | 151.12016 | 2997 ft | 238 kts | 314° |
| 2026-05-04 06:42 | -33.85456 | 151.10554 | 3779 ft | 238 kts | 314° |
| 2026-05-04 06:42 | -33.84314 | 151.09075 | 4488 ft | 242 kts | 314° |
| 2026-05-04 06:42 | -33.83180 | 151.07607 | 4948 ft | 236 kts | 314° |
| 2026-05-04 06:44 | -33.75077 | 150.97207 | 5519 ft | 244 kts | 314° |
| 2026-05-04 06:44 | -33.73907 | 150.95711 | 6221 ft | 246 kts | 313° |
| 2026-05-04 06:44 | -33.72729 | 150.94206 | 6880 ft | 248 kts | 313° |
| 2026-05-04 06:45 | -33.71551 | 150.92701 | 7547 ft | 251 kts | 313° |
| 2026-05-04 06:45 | -33.70336 | 150.91151 | 8121 ft | 259 kts | 313° |
| 2026-05-04 06:45 | -33.69065 | 150.89529 | 8397 ft | 278 kts | 314° |
| 2026-05-04 06:45 | -33.67683 | 150.87769 | 8584 ft | 300 kts | 314° |
| 2026-05-04 06:46 | -33.66197 | 150.85874 | 8765 ft | 322 kts | 314° |
| 2026-05-04 06:46 | -33.64623 | 150.83868 | 9187 ft | 335 kts | 314° |
| 2026-05-04 06:46 | -33.63005 | 150.81807 | 9768 ft | 343 kts | 314° |
| 2026-05-04 06:46 | -33.61361 | 150.79715 | 10420 ft | 347 kts | 314° |
| 2026-05-04 06:48 | -33.48913 | 150.65147 | 16064 ft | 369 kts | 316° |
| 2026-05-04 06:48 | -33.47052 | 150.63004 | 16798 ft | 373 kts | 316° |
| 2026-05-04 06:49 | -33.45168 | 150.60834 | 17543 ft | 377 kts | 316° |
| 2026-05-04 06:50 | -33.32245 | 150.45965 | 22138 ft | 394 kts | 315° |
| 2026-05-04 06:51 | -33.29619 | 150.42946 | 23012 ft | 396 kts | 315° |
| 2026-05-04 06:51 | -33.27645 | 150.40678 | 23666 ft | 398 kts | 315° |
| 2026-05-04 06:51 | -33.25619 | 150.38353 | 24189 ft | 401 kts | 315° |
| 2026-05-04 06:51 | -33.24278 | 150.36814 | 24524 ft | 403 kts | 315° |
| 2026-05-04 06:52 | -33.22251 | 150.34491 | 25018 ft | 405 kts | 315° |
| 2026-05-04 06:52 | -33.20212 | 150.32154 | 25516 ft | 407 kts | 315° |
| 2026-05-04 06:52 | -33.18167 | 150.29810 | 26047 ft | 409 kts | 315° |
| 2026-05-04 06:52 | -33.16097 | 150.27441 | 26435 ft | 413 kts | 315° |
| 2026-05-04 06:53 | -33.14015 | 150.25062 | 26855 ft | 416 kts | 315° |
| 2026-05-04 06:53 | -33.11911 | 150.22659 | 27301 ft | 418 kts | 315° |
| 2026-05-04 06:53 | -33.09813 | 150.20264 | 27811 ft | 419 kts | 315° |
| 2026-05-04 06:53 | -33.07701 | 150.17853 | 28270 ft | 421 kts | 315° |
| 2026-05-04 06:54 | -33.05573 | 150.15426 | 28662 ft | 424 kts | 315° |
| 2026-05-04 06:54 | -33.03431 | 150.12985 | 28971 ft | 428 kts | 315° |
| 2026-05-04 06:54 | -33.01266 | 150.10519 | 29318 ft | 430 kts | 315° |
| 2026-05-04 06:54 | -32.99102 | 150.08055 | 29694 ft | 431 kts | 315° |
| 2026-05-04 06:55 | -32.96930 | 150.05585 | 30039 ft | 433 kts | 315° |
| 2026-05-04 06:55 | -32.94743 | 150.03101 | 30371 ft | 433 kts | 315° |
| 2026-05-04 06:55 | -32.92598 | 150.00665 | 30801 ft | 430 kts | 314° |
| 2026-05-04 06:55 | -32.90452 | 149.98232 | 31312 ft | 425 kts | 314° |
| 2026-05-04 06:56 | -32.88304 | 149.95797 | 31851 ft | 421 kts | 314° |
| 2026-05-04 06:57 | -32.73865 | 149.79454 | 34049 ft | 408 kts | 312° |
| 2026-05-04 06:58 | -32.69777 | 149.74833 | 34049 ft | 403 kts | 312° |
| 2026-05-04 06:58 | -32.65721 | 149.70268 | 34057 ft | 401 kts | 313° |
| 2026-05-04 06:59 | -32.61240 | 149.66235 | 34053 ft | 406 kts | 319° |
| 2026-05-04 06:59 | -32.56619 | 149.62386 | 34058 ft | 405 kts | 319° |
| 2026-05-04 07:01 | -32.38251 | 149.46949 | 34051 ft | 406 kts | 319° |
| 2026-05-04 07:02 | -32.33639 | 149.43091 | 34051 ft | 406 kts | 319° |
| 2026-05-04 07:02 | -32.27886 | 149.38285 | 34049 ft | 405 kts | 319° |
| 2026-05-04 07:03 | -32.09552 | 149.23017 | 34033 ft | 405 kts | 318° |
| 2026-05-04 07:03 | -31.91121 | 149.07747 | 34055 ft | 404 kts | 318° |
| 2026-05-04 07:04 | -31.72680 | 148.92545 | 34065 ft | 404 kts | 318° |
| 2026-05-04 07:04 | -31.54221 | 148.77402 | 34047 ft | 404 kts | 318° |
| 2026-05-04 07:05 | -31.35884 | 148.62433 | 34053 ft | 404 kts | 318° |
| 2026-05-04 07:05 | -31.17395 | 148.47413 | 34092 ft | 403 kts | 318° |
| 2026-05-04 07:06 | -30.89714 | 148.25061 | 34061 ft | 404 kts | 318° |
| 2026-05-04 07:07 | -30.71280 | 148.10265 | 34024 ft | 405 kts | 319° |
| 2026-05-04 07:09 | -29.96763 | 147.51155 | 34047 ft | 406 kts | 319° |
| 2026-05-04 07:09 | -29.88897 | 147.44979 | 34056 ft | 407 kts | 319° |
| 2026-05-04 07:10 | -29.74388 | 147.33620 | 34025 ft | 406 kts | 319° |
| 2026-05-04 07:12 | -28.96068 | 146.80556 | 34032 ft | 416 kts | 326° |
| 2026-05-04 07:12 | -28.75219 | 146.69089 | 34053 ft | 410 kts | 322° |
| 2026-05-04 07:13 | -28.57159 | 146.53998 | 34024 ft | 405 kts | 317° |
| 2026-05-04 07:13 | -28.38994 | 146.38595 | 33986 ft | 408 kts | 317° |
| 2026-05-04 07:14 | -27.93356 | 146.00189 | 33990 ft | 410 kts | 317° |
| 2026-05-04 07:15 | -27.74989 | 145.84851 | 34065 ft | 409 kts | 318° |
| 2026-05-04 07:15 | -27.56654 | 145.69602 | 34053 ft | 409 kts | 318° |
| 2026-05-04 07:16 | -27.38300 | 145.54402 | 34067 ft | 410 kts | 318° |
| 2026-05-04 07:16 | -27.24849 | 145.43302 | 34053 ft | 409 kts | 318° |
| 2026-05-04 07:17 | -27.14535 | 145.34824 | 34067 ft | 409 kts | 318° |
| 2026-05-04 07:17 | -26.96186 | 145.19783 | 34058 ft | 408 kts | 318° |
| 2026-05-04 07:18 | -26.77847 | 145.04812 | 34058 ft | 407 kts | 319° |
| 2026-05-04 07:18 | -26.59578 | 144.89956 | 34054 ft | 405 kts | 319° |
| 2026-05-04 07:19 | -26.41447 | 144.75269 | 34079 ft | 403 kts | 319° |
| 2026-05-04 07:19 | -26.23227 | 144.60567 | 34061 ft | 404 kts | 319° |
| 2026-05-04 07:20 | -26.05004 | 144.45920 | 34077 ft | 405 kts | 319° |
| 2026-05-04 07:20 | -25.86651 | 144.31227 | 34065 ft | 407 kts | 319° |
| 2026-05-04 07:22 | -25.12737 | 143.72670 | 34068 ft | 407 kts | 320° |
| 2026-05-04 07:23 | -24.94354 | 143.58243 | 34041 ft | 407 kts | 320° |
| 2026-05-04 07:23 | -24.75850 | 143.43775 | 34092 ft | 409 kts | 320° |
| 2026-05-04 07:24 | -24.57165 | 143.29221 | 34028 ft | 411 kts | 320° |
| 2026-05-04 07:24 | -24.38444 | 143.14694 | 34007 ft | 411 kts | 320° |
| 2026-05-04 07:26 | -23.63546 | 142.57100 | 34025 ft | 413 kts | 321° |
| 2026-05-04 07:27 | -23.44650 | 142.42701 | 34012 ft | 414 kts | 321° |
| 2026-05-04 07:27 | -23.25778 | 142.28371 | 34132 ft | 412 kts | 321° |
| 2026-05-04 07:28 | -23.06818 | 142.14023 | 34051 ft | 417 kts | 321° |
| 2026-05-04 07:28 | -22.97236 | 142.06791 | 33944 ft | 420 kts | 321° |
| 2026-05-04 07:28 | -22.87772 | 141.99661 | 34040 ft | 418 kts | 321° |
| 2026-05-04 07:29 | -22.68586 | 141.85241 | 33953 ft | 420 kts | 321° |
| 2026-05-04 07:29 | -22.49340 | 141.70833 | 33979 ft | 419 kts | 321° |
| 2026-05-04 07:30 | -22.30277 | 141.56604 | 34033 ft | 419 kts | 321° |
| 2026-05-04 07:30 | -22.11040 | 141.42293 | 33997 ft | 419 kts | 322° |
| 2026-05-04 07:31 | -21.91789 | 141.28021 | 34021 ft | 420 kts | 322° |
| 2026-05-04 07:33 | -21.35232 | 140.86360 | 34025 ft | 425 kts | 322° |
| 2026-05-04 07:33 | -21.30344 | 140.82783 | 34285 ft | 428 kts | 322° |
| 2026-05-04 07:34 | -21.27953 | 140.81038 | 35012 ft | 416 kts | 322° |
| 2026-05-04 07:34 | -21.25559 | 140.79289 | 35190 ft | 418 kts | 322° |
| 2026-05-04 07:34 | -21.20707 | 140.75739 | 35384 ft | 424 kts | 322° |
| 2026-05-04 07:35 | -21.18270 | 140.73958 | 35632 ft | 423 kts | 322° |
| 2026-05-04 07:35 | -21.15846 | 140.72188 | 35870 ft | 422 kts | 322° |
| 2026-05-04 07:35 | -21.10981 | 140.68638 | 35981 ft | 424 kts | 322° |
| 2026-05-04 07:36 | -21.06107 | 140.65085 | 36007 ft | 421 kts | 322° |
| 2026-05-04 07:38 | -20.87643 | 140.51646 | 36020 ft | 419 kts | 322° |
| 2026-05-04 07:38 | -20.82522 | 140.47926 | 35985 ft | 420 kts | 322° |
| 2026-05-04 07:39 | -20.63344 | 140.34022 | 36022 ft | 424 kts | 322° |
| 2026-05-04 07:39 | -20.43734 | 140.19851 | 36004 ft | 427 kts | 322° |
| 2026-05-04 07:40 | -20.23982 | 140.05621 | 36011 ft | 429 kts | 322° |
| 2026-05-04 07:40 | -20.04174 | 139.91395 | 35992 ft | 430 kts | 322° |
| 2026-05-04 07:41 | -19.84302 | 139.77168 | 35963 ft | 431 kts | 322° |
| 2026-05-04 07:41 | -19.64385 | 139.62949 | 35959 ft | 431 kts | 322° |
| 2026-05-04 07:42 | -19.44552 | 139.48837 | 35953 ft | 431 kts | 323° |
| 2026-05-04 07:42 | -19.24576 | 139.34659 | 35974 ft | 433 kts | 323° |
| 2026-05-04 07:43 | -19.04505 | 139.20457 | 35951 ft | 434 kts | 323° |
| 2026-05-04 07:43 | -18.84401 | 139.06273 | 35936 ft | 433 kts | 323° |
| 2026-05-04 07:44 | -18.64353 | 138.92170 | 35938 ft | 433 kts | 323° |
| 2026-05-04 07:44 | -18.44393 | 138.78169 | 35933 ft | 433 kts | 323° |
| 2026-05-04 07:45 | -18.24296 | 138.64112 | 35909 ft | 434 kts | 323° |
| 2026-05-04 07:45 | -18.04152 | 138.50062 | 35935 ft | 435 kts | 323° |
| 2026-05-04 07:46 | -17.83877 | 138.35960 | 35832 ft | 439 kts | 323° |
| 2026-05-04 07:46 | -17.73709 | 138.28903 | 35940 ft | 438 kts | 323° |
| 2026-05-04 07:46 | -17.63527 | 138.21846 | 35926 ft | 439 kts | 323° |
| 2026-05-04 07:47 | -17.43103 | 138.07718 | 35925 ft | 441 kts | 324° |
| 2026-05-04 07:49 | -16.60984 | 137.51300 | 35926 ft | 444 kts | 324° |
| 2026-05-04 07:49 | -16.40280 | 137.37168 | 35929 ft | 445 kts | 324° |
| 2026-05-04 07:50 | -16.19579 | 137.23076 | 35920 ft | 445 kts | 324° |
| 2026-05-04 07:50 | -15.99696 | 137.09574 | 35930 ft | 445 kts | 324° |
| 2026-05-04 07:51 | -15.94543 | 137.06080 | 35926 ft | 445 kts | 324° |
| 2026-05-04 07:51 | -15.78132 | 136.94967 | 35918 ft | 445 kts | 324° |
| 2026-05-04 07:52 | -15.57413 | 136.80967 | 35928 ft | 445 kts | 325° |
| 2026-05-04 07:52 | -15.36781 | 136.67055 | 35941 ft | 445 kts | 324° |
| 2026-05-04 07:54 | -14.56527 | 136.06419 | 35934 ft | 448 kts | 322° |
| 2026-05-04 07:55 | -14.36297 | 135.91213 | 35930 ft | 450 kts | 322° |
| 2026-05-04 07:55 | -14.16043 | 135.76022 | 35929 ft | 451 kts | 323° |
| 2026-05-04 07:56 | -13.95672 | 135.60777 | 35943 ft | 452 kts | 323° |
| 2026-05-04 07:56 | -13.75396 | 135.45635 | 35936 ft | 454 kts | 323° |
| 2026-05-04 07:57 | -13.54892 | 135.30349 | 35896 ft | 456 kts | 323° |
| 2026-05-04 07:57 | -13.34347 | 135.15067 | 35927 ft | 456 kts | 323° |
| 2026-05-04 07:58 | -13.13756 | 134.99783 | 35916 ft | 458 kts | 323° |
| 2026-05-04 07:58 | -12.93010 | 134.84417 | 35909 ft | 458 kts | 323° |
| 2026-05-04 07:59 | -12.72307 | 134.69114 | 35896 ft | 459 kts | 323° |
| 2026-05-04 07:59 | -12.51736 | 134.53940 | 35887 ft | 459 kts | 323° |
| 2026-05-04 08:00 | -12.30979 | 134.38660 | 35881 ft | 460 kts | 323° |
| 2026-05-04 08:02 | -11.47258 | 133.77344 | 35911 ft | 467 kts | 324° |
| 2026-05-04 08:02 | -11.26065 | 133.61898 | 35904 ft | 470 kts | 324° |
| 2026-05-04 08:03 | -11.04679 | 133.46340 | 35907 ft | 472 kts | 324° |
| 2026-05-04 08:03 | -10.83246 | 133.30777 | 35905 ft | 474 kts | 324° |
| 2026-05-04 08:04 | -10.61722 | 133.15175 | 35902 ft | 476 kts | 324° |
| 2026-05-04 08:04 | -10.40133 | 132.99554 | 35891 ft | 477 kts | 324° |
| 2026-05-04 08:05 | -10.18498 | 132.83927 | 35886 ft | 477 kts | 323° |
| 2026-05-04 08:05 | -9.96796 | 132.68279 | 35883 ft | 478 kts | 323° |
| 2026-05-04 08:06 | -9.75046 | 132.52621 | 35880 ft | 480 kts | 323° |
| 2026-05-04 08:06 | -9.53393 | 132.37059 | 35904 ft | 480 kts | 323° |
| 2026-05-04 08:08 | -8.65598 | 131.74213 | 35861 ft | 485 kts | 323° |
| 2026-05-04 08:11 | -7.65910 | 131.03253 | 35862 ft | 491 kts | 323° |
| 2026-05-04 08:11 | -7.32363 | 130.79433 | 35885 ft | 493 kts | 323° |
| 2026-05-04 08:12 | -7.09781 | 130.63425 | 35866 ft | 495 kts | 323° |
| 2026-05-04 08:12 | -6.87233 | 130.47459 | 35935 ft | 497 kts | 324° |
| 2026-05-04 08:13 | -6.75886 | 130.39432 | 35819 ft | 501 kts | 324° |
| 2026-05-04 08:13 | -6.64619 | 130.31466 | 35794 ft | 502 kts | 324° |
| 2026-05-04 08:13 | -6.41793 | 130.15342 | 35919 ft | 501 kts | 324° |
| 2026-05-04 08:14 | -6.18882 | 129.99176 | 35905 ft | 503 kts | 324° |
| 2026-05-04 08:16 | -5.26992 | 129.34505 | 35850 ft | 504 kts | 325° |
| 2026-05-04 08:16 | -5.04027 | 129.18382 | 35845 ft | 504 kts | 325° |
| 2026-05-04 08:17 | -4.81027 | 129.02248 | 35847 ft | 504 kts | 325° |
| 2026-05-04 08:17 | -4.58058 | 128.86149 | 35848 ft | 503 kts | 325° |
| 2026-05-04 08:19 | -3.93087 | 128.40678 | 35808 ft | 500 kts | 324° |
| 2026-05-04 08:20 | -3.87363 | 128.36676 | 35831 ft | 503 kts | 325° |
| 2026-05-04 08:20 | -3.81615 | 128.32659 | 35845 ft | 506 kts | 325° |
| 2026-05-04 08:21 | -3.66158 | 128.21856 | 35844 ft | 510 kts | 325° |
| 2026-05-04 08:21 | -3.41773 | 128.07049 | 35858 ft | 512 kts | 330° |
| 2026-05-04 08:22 | -3.17312 | 127.92726 | 35841 ft | 511 kts | 330° |
| 2026-05-04 08:24 | -2.32593 | 127.43181 | 35778 ft | 496 kts | 330° |
| 2026-05-04 08:24 | -2.20746 | 127.36259 | 35797 ft | 496 kts | 330° |
| 2026-05-04 08:24 | -2.00593 | 127.24487 | 35852 ft | 513 kts | 330° |
| 2026-05-04 08:25 | -1.76064 | 127.10162 | 35824 ft | 504 kts | 330° |
| 2026-05-04 08:25 | -1.51969 | 126.96095 | 35870 ft | 501 kts | 330° |
| 2026-05-04 08:27 | -0.54286 | 126.39100 | 35809 ft | 501 kts | 329° |
| 2026-05-04 08:28 | -0.29754 | 126.24791 | 35812 ft | 518 kts | 329° |
| 2026-05-04 08:28 | -0.17307 | 126.17531 | 35640 ft | 516 kts | 330° |
| 2026-05-04 08:28 | -0.05072 | 126.10395 | 35726 ft | 504 kts | 330° |
| 2026-05-04 08:29 | 0.06960 | 126.03378 | 35880 ft | 499 kts | 329° |
| 2026-05-04 08:29 | 0.14613 | 125.98914 | 35994 ft | 504 kts | 329° |
| 2026-05-04 08:31 | 0.50951 | 125.77719 | 35848 ft | 507 kts | 329° |
| 2026-05-04 08:33 | 1.48324 | 125.20905 | 35903 ft | 509 kts | 330° |
| 2026-05-04 08:35 | 2.45989 | 124.63463 | 35848 ft | 506 kts | 330° |
| 2026-05-04 08:35 | 2.70181 | 124.49085 | 35834 ft | 505 kts | 330° |
| 2026-05-04 08:37 | 3.54492 | 123.98923 | 35855 ft | 504 kts | 330° |
| 2026-05-04 08:38 | 3.78620 | 123.84548 | 35854 ft | 505 kts | 330° |
| 2026-05-04 08:38 | 4.02839 | 123.70141 | 35855 ft | 505 kts | 331° |
| 2026-05-04 08:40 | 4.44320 | 123.46719 | 36123 ft | 507 kts | 331° |
| 2026-05-04 08:40 | 4.47381 | 123.44985 | 36501 ft | 504 kts | 331° |
| 2026-05-04 08:40 | 4.50420 | 123.43264 | 36920 ft | 501 kts | 331° |
| 2026-05-04 08:41 | 4.53451 | 123.41547 | 37298 ft | 498 kts | 331° |
| 2026-05-04 08:41 | 4.56469 | 123.39837 | 37612 ft | 497 kts | 331° |
| 2026-05-04 08:41 | 4.59490 | 123.38125 | 37774 ft | 499 kts | 331° |
| 2026-05-04 08:42 | 4.65553 | 123.34689 | 37853 ft | 501 kts | 331° |
| 2026-05-04 08:42 | 4.71596 | 123.31264 | 37846 ft | 497 kts | 331° |
| 2026-05-04 08:43 | 4.77610 | 123.27854 | 37853 ft | 495 kts | 331° |
| 2026-05-04 08:43 | 4.83554 | 123.24484 | 37860 ft | 494 kts | 331° |
| 2026-05-04 08:44 | 4.99844 | 123.15243 | 37864 ft | 493 kts | 331° |
| 2026-05-04 08:46 | 5.96005 | 122.60578 | 37867 ft | 498 kts | 330° |
| 2026-05-04 08:46 | 6.20026 | 122.46889 | 37857 ft | 499 kts | 331° |
| 2026-05-04 08:47 | 6.44187 | 122.33104 | 37861 ft | 499 kts | 331° |
| 2026-05-04 08:47 | 6.68399 | 122.19280 | 37866 ft | 500 kts | 331° |
| 2026-05-04 08:48 | 6.83448 | 122.10679 | 37858 ft | 501 kts | 331° |
| 2026-05-04 08:48 | 6.89521 | 122.07205 | 37861 ft | 501 kts | 331° |
| 2026-05-04 08:49 | 7.05123 | 121.99291 | 37882 ft | 501 kts | 335° |
| 2026-05-04 08:50 | 7.92324 | 121.56422 | 37869 ft | 496 kts | 334° |
| 2026-05-04 08:51 | 8.17170 | 121.44162 | 37885 ft | 499 kts | 334° |
| 2026-05-04 08:51 | 8.42226 | 121.31780 | 37887 ft | 502 kts | 334° |
| 2026-05-04 08:52 | 8.67336 | 121.19354 | 37883 ft | 503 kts | 334° |
| 2026-05-04 08:52 | 8.92384 | 121.06940 | 37878 ft | 505 kts | 333° |
| 2026-05-04 08:54 | 9.92299 | 120.57195 | 38000 ft | 492 kts | 333° |
| 2026-05-04 08:55 | 10.17137 | 120.44744 | 37862 ft | 498 kts | 333° |
| 2026-05-04 08:55 | 10.40787 | 120.32876 | 37868 ft | 485 kts | 333° |
| 2026-05-04 08:57 | 11.27295 | 119.89245 | 37933 ft | 502 kts | 333° |
| 2026-05-04 09:01 | 12.88203 | 119.07278 | 37868 ft | 486 kts | 331° |
| 2026-05-04 09:01 | 12.94309 | 119.04146 | 37879 ft | 492 kts | 332° |
| 2026-05-04 09:02 | 13.00446 | 119.00999 | 37882 ft | 494 kts | 332° |
| 2026-05-04 09:02 | 13.06605 | 118.97840 | 37876 ft | 494 kts | 332° |
| 2026-05-04 09:03 | 13.12753 | 118.94687 | 37871 ft | 493 kts | 332° |
| 2026-05-04 09:03 | 13.18835 | 118.91567 | 37876 ft | 490 kts | 331° |
| 2026-05-04 09:04 | 13.24933 | 118.88434 | 37873 ft | 487 kts | 331° |
| 2026-05-04 09:04 | 13.30987 | 118.85323 | 37874 ft | 485 kts | 331° |
| 2026-05-04 09:05 | 13.37006 | 118.82227 | 37875 ft | 483 kts | 331° |
| 2026-05-04 09:05 | 13.43015 | 118.79135 | 37876 ft | 482 kts | 331° |
| 2026-05-04 09:06 | 13.49020 | 118.76043 | 37881 ft | 482 kts | 331° |
| 2026-05-04 09:08 | 13.86867 | 118.56538 | 37867 ft | 490 kts | 331° |
| 2026-05-04 09:08 | 14.11349 | 118.43885 | 37891 ft | 494 kts | 331° |
| 2026-05-04 09:09 | 14.35769 | 118.31232 | 37880 ft | 490 kts | 332° |
| 2026-05-04 09:09 | 14.59678 | 118.18799 | 37841 ft | 474 kts | 331° |
| 2026-05-04 09:10 | 14.83462 | 118.06398 | 37930 ft | 486 kts | 331° |
| 2026-05-04 09:10 | 15.03796 | 117.95774 | 37894 ft | 492 kts | 332° |
| 2026-05-04 09:11 | 15.27789 | 117.83210 | 37898 ft | 474 kts | 331° |
| 2026-05-04 09:11 | 15.51356 | 117.70833 | 37921 ft | 482 kts | 331° |
| 2026-05-04 09:12 | 15.75458 | 117.58146 | 37890 ft | 484 kts | 331° |
| 2026-05-04 09:14 | 16.70727 | 117.07651 | 37882 ft | 471 kts | 329° |
| 2026-05-04 09:14 | 16.94344 | 116.95041 | 37936 ft | 487 kts | 330° |
| 2026-05-04 09:15 | 17.18548 | 116.82088 | 37890 ft | 483 kts | 329° |
| 2026-05-04 09:15 | 17.42052 | 116.69467 | 37939 ft | 471 kts | 329° |
| 2026-05-04 09:17 | 18.48708 | 116.11737 | 37920 ft | 476 kts | 328° |
| 2026-05-04 09:18 | 18.71939 | 115.99051 | 37963 ft | 469 kts | 328° |
| 2026-05-04 09:18 | 18.95566 | 115.86111 | 37973 ft | 485 kts | 328° |
| 2026-05-04 09:19 | 19.19168 | 115.73140 | 37882 ft | 472 kts | 328° |
| 2026-05-04 09:19 | 19.42267 | 115.60393 | 37944 ft | 469 kts | 328° |
| 2026-05-04 09:20 | 19.65820 | 115.47354 | 37955 ft | 484 kts | 328° |
| 2026-05-04 09:20 | 19.77692 | 115.40771 | 37835 ft | 478 kts | 328° |
| 2026-05-04 09:20 | 19.89338 | 115.34300 | 37932 ft | 467 kts | 328° |
| 2026-05-04 09:21 | 20.00733 | 115.27956 | 38041 ft | 459 kts | 328° |
| 2026-05-04 09:21 | 20.12087 | 115.21620 | 38046 ft | 462 kts | 328° |
| 2026-05-04 09:21 | 20.21859 | 115.16159 | 38009 ft | 470 kts | 328° |
| 2026-05-04 09:22 | 20.24724 | 115.14556 | 37810 ft | 471 kts | 328° |
| 2026-05-04 09:22 | 20.27572 | 115.12970 | 37915 ft | 454 kts | 328° |
| 2026-05-04 09:22 | 20.33129 | 115.09864 | 37975 ft | 458 kts | 328° |
| 2026-05-04 09:23 | 20.38842 | 115.06656 | 37982 ft | 469 kts | 328° |
| 2026-05-04 09:23 | 20.44647 | 115.03399 | 37966 ft | 472 kts | 328° |
| 2026-05-04 09:25 | 20.67776 | 114.90415 | 37971 ft | 463 kts | 327° |
| 2026-05-04 09:26 | 20.73465 | 114.87212 | 37973 ft | 461 kts | 327° |
| 2026-05-04 09:26 | 20.79084 | 114.84045 | 37307 ft | 461 kts | 327° |
| 2026-05-04 09:27 | 20.81919 | 114.82445 | 36661 ft | 459 kts | 327° |
| 2026-05-04 09:27 | 20.84743 | 114.80852 | 35915 ft | 460 kts | 327° |
| 2026-05-04 09:27 | 20.87587 | 114.79246 | 35083 ft | 464 kts | 327° |
| 2026-05-04 09:27 | 20.90461 | 114.77622 | 34167 ft | 469 kts | 327° |
| 2026-05-04 09:28 | 20.93361 | 114.75981 | 33120 ft | 475 kts | 327° |
| 2026-05-04 09:28 | 20.96291 | 114.74323 | 32127 ft | 479 kts | 327° |
| 2026-05-04 09:28 | 20.99256 | 114.72646 | 31077 ft | 484 kts | 327° |
| 2026-05-04 09:28 | 21.02237 | 114.70962 | 30298 ft | 485 kts | 328° |
| 2026-05-04 09:29 | 21.05219 | 114.69278 | 29454 ft | 484 kts | 328° |
| 2026-05-04 09:29 | 21.08184 | 114.67603 | 28668 ft | 481 kts | 328° |
| 2026-05-04 09:29 | 21.11133 | 114.65936 | 27937 ft | 477 kts | 327° |
| 2026-05-04 09:29 | 21.14049 | 114.64285 | 27232 ft | 473 kts | 327° |
| 2026-05-04 09:30 | 21.16950 | 114.62641 | 26531 ft | 469 kts | 327° |
| 2026-05-04 09:30 | 21.19823 | 114.61011 | 25849 ft | 465 kts | 327° |
| 2026-05-04 09:30 | 21.22680 | 114.59390 | 25166 ft | 463 kts | 327° |
| 2026-05-04 09:30 | 21.25483 | 114.57799 | 24468 ft | 451 kts | 327° |
| 2026-05-04 09:31 | 21.28250 | 114.56226 | 23804 ft | 450 kts | 327° |
| 2026-05-04 09:31 | 21.31007 | 114.54658 | 23047 ft | 448 kts | 327° |
| 2026-05-04 09:31 | 21.33758 | 114.53096 | 22341 ft | 445 kts | 327° |
| 2026-05-04 09:31 | 21.36496 | 114.51570 | 21665 ft | 441 kts | 328° |
| 2026-05-04 09:32 | 21.39216 | 114.50074 | 21006 ft | 438 kts | 328° |
| 2026-05-04 09:32 | 21.41919 | 114.48589 | 20368 ft | 434 kts | 328° |
| 2026-05-04 09:34 | 21.59699 | 114.38593 | 15979 ft | 399 kts | 327° |
| 2026-05-04 09:34 | 21.62144 | 114.37200 | 15384 ft | 396 kts | 327° |
| 2026-05-04 09:34 | 21.64570 | 114.35818 | 14935 ft | 390 kts | 327° |
| 2026-05-04 09:34 | 21.66927 | 114.34479 | 14765 ft | 377 kts | 327° |
| 2026-05-04 09:35 | 21.69213 | 114.33180 | 14600 ft | 365 kts | 327° |
| 2026-05-04 09:35 | 21.71421 | 114.31922 | 14435 ft | 353 kts | 327° |
| 2026-05-04 09:35 | 21.73560 | 114.30702 | 14290 ft | 342 kts | 326° |
| 2026-05-04 09:35 | 21.75634 | 114.29520 | 14149 ft | 332 kts | 326° |
| 2026-05-04 09:37 | 21.88945 | 114.21920 | 12488 ft | 303 kts | 326° |
| 2026-05-04 09:37 | 21.90802 | 114.20860 | 12241 ft | 300 kts | 326° |
| 2026-05-04 09:38 | 21.92648 | 114.19804 | 11989 ft | 299 kts | 326° |
| 2026-05-04 09:38 | 21.94479 | 114.18757 | 11734 ft | 298 kts | 326° |
| 2026-05-04 09:38 | 21.96313 | 114.17707 | 11479 ft | 297 kts | 326° |
| 2026-05-04 09:38 | 21.98127 | 114.16669 | 11219 ft | 294 kts | 326° |
| 2026-05-04 09:39 | 21.99921 | 114.15643 | 10971 ft | 289 kts | 327° |
| 2026-05-04 09:39 | 22.01665 | 114.14644 | 10759 ft | 286 kts | 327° |
| 2026-05-04 09:39 | 22.03421 | 114.13639 | 10520 ft | 284 kts | 327° |
| 2026-05-04 09:39 | 22.05171 | 114.12637 | 10289 ft | 286 kts | 327° |
| 2026-05-04 09:40 | 22.06925 | 114.11632 | 10041 ft | 283 kts | 327° |
| 2026-05-04 09:40 | 22.08658 | 114.10638 | 9804 ft | 280 kts | 327° |
| 2026-05-04 09:40 | 22.10366 | 114.09659 | 9543 ft | 276 kts | 327° |
| 2026-05-04 09:40 | 22.12029 | 114.08705 | 9306 ft | 272 kts | 327° |
| 2026-05-04 09:41 | 22.13696 | 114.07749 | 9084 ft | 269 kts | 327° |
| 2026-05-04 09:42 | 22.21843 | 113.98686 | 7361 ft | 262 kts | 266° |
| 2026-05-04 09:43 | 22.21765 | 113.96728 | 7013 ft | 255 kts | 266° |
| 2026-05-04 09:43 | 22.21700 | 113.94897 | 6706 ft | 238 kts | 266° |
| 2026-05-04 09:43 | 22.21641 | 113.93175 | 6421 ft | 223 kts | 266° |
| 2026-05-04 09:43 | 22.21584 | 113.91506 | 6150 ft | 220 kts | 266° |
| 2026-05-04 09:44 | 22.21568 | 113.89877 | 5923 ft | 213 kts | 277° |
| 2026-05-04 09:44 | 22.22171 | 113.88413 | 5776 ft | 223 kts | 309° |
| 2026-05-04 09:44 | 22.23460 | 113.87432 | 5607 ft | 235 kts | 338° |
| 2026-05-04 09:46 | 22.31638 | 113.93904 | 4328 ft | 191 kts | 84° |
| 2026-05-04 09:46 | 22.31736 | 113.95338 | 4157 ft | 191 kts | 87° |
| 2026-05-04 09:46 | 22.31839 | 113.96752 | 3920 ft | 186 kts | 87° |
| 2026-05-04 09:47 | 22.31939 | 113.98120 | 3696 ft | 179 kts | 87° |
| 2026-05-04 09:47 | 22.32031 | 113.99431 | 3484 ft | 173 kts | 87° |
| 2026-05-04 09:49 | 22.32543 | 114.07093 | 2512 ft | 132 kts | 88° |
| 2026-05-04 09:49 | 22.32583 | 114.08117 | 2321 ft | 133 kts | 88° |
| 2026-05-04 09:49 | 22.32638 | 114.09076 | 2146 ft | 128 kts | 87° |
| 2026-05-04 09:51 | 22.33017 | 114.14685 | 1124 ft | 124 kts | 85° |
| 2026-05-04 09:51 | 22.33079 | 114.15616 | 977 ft | 126 kts | 85° |
| 2026-05-04 09:51 | 22.33143 | 114.16562 | 793 ft | 128 kts | 86° |
| 2026-05-04 09:51 | 22.33182 | 114.17526 | 603 ft | 127 kts | 88° |
| 2026-05-04 09:52 | 22.33078 | 114.18508 | 438 ft | 136 kts | 107° |
| 2026-05-04 09:52 | 22.32472 | 114.19311 | 152 ft | 141 kts | 132° |
| 2026-05-04 09:52 | 22.31813 | 114.20049 | 37 ft | 132 kts | 131° |
| 2026-05-04 09:52 | 22.31261 | 114.20676 | 34 ft | 90 kts | 134° |
| 2026-05-04 09:53 | 22.30952 | 114.21021 | 34 ft | 38 kts | 134° |
| 2026-05-04 09:53 | 22.30836 | 114.21185 | 34 ft | 20 kts | 109° |
| 2026-05-04 09:53 | 22.30854 | 114.21260 | 34 ft | 7 kts | 20° |
| 2026-05-04 09:53 | 22.30898 | 114.21239 | 34 ft | 8 kts | 315° |
| 2026-05-04 09:54 | 22.30935 | 114.21192 | 34 ft | 9 kts | 310° |
| 2026-05-04 09:54 | 22.30978 | 114.21141 | 34 ft | 10 kts | 313° |
| 2026-05-04 09:54 | 22.31027 | 114.21085 | 34 ft | 11 kts | 315° |
| 2026-05-04 09:54 | 22.31084 | 114.21024 | 34 ft | 12 kts | 315° |
| 2026-05-04 09:55 | 22.31145 | 114.20958 | 34 ft | 13 kts | 314° |
| 2026-05-04 09:55 | 22.31208 | 114.20887 | 34 ft | 13 kts | 313° |
| 2026-05-04 09:55 | 22.31250 | 114.20840 | 34 ft | 13 kts | 314° |
| 2026-05-04 09:55 | 22.31316 | 114.20765 | 34 ft | 14 kts | 314° |
| 2026-05-04 09:56 | 22.31412 | 114.20658 | 34 ft | 15 kts | 314° |
| 2026-05-04 09:56 | 22.31463 | 114.20600 | 32 ft | 16 kts | 314° |
| 2026-05-04 09:56 | 22.31532 | 114.20524 | 34 ft | 13 kts | 314° |
| 2026-05-04 09:56 | 22.31595 | 114.20455 | 34 ft | 13 kts | 314° |
| 2026-05-04 09:57 | 22.31657 | 114.20386 | 34 ft | 13 kts | 314° |
| 2026-05-04 09:57 | 22.31718 | 114.20316 | 34 ft | 13 kts | 314° |
| 2026-05-04 09:57 | 22.31779 | 114.20248 | 34 ft | 13 kts | 314° |
| 2026-05-04 09:57 | 22.31841 | 114.20179 | 34 ft | 13 kts | 314° |
| 2026-05-04 09:58 | 22.31903 | 114.20110 | 34 ft | 13 kts | 314° |
| 2026-05-04 09:58 | 22.31964 | 114.20042 | 34 ft | 13 kts | 314° |
| 2026-05-04 09:58 | 22.32026 | 114.19973 | 34 ft | 13 kts | 314° |
| 2026-05-04 10:00 | 22.32467 | 114.19502 | 33 ft | 13 kts | 317° |
| 2026-05-04 10:00 | 22.32532 | 114.19437 | 33 ft | 13 kts | 319° |
| 2026-05-04 10:02 | 22.32643 | 114.19454 | 35 ft | 2 kts | 36° |
| 2026-05-04 10:04 | 22.32708 | 114.19398 | 34 ft | 0 kts | 314° |